Time;durP1;ratioP1;P1;durP2;ratioP2;P2;SDS_P1;SDS_P2;PMS_P1;PMS_P2;Temp;Humidity;BMP_temperature;BMP_pressure;BME280_temperature;BME280_humidity;BME280_pressure;Samples;Min_cycle;Max_cycle;Signal;HPM_P1;HPM_P2
2021/06/01 00:00:14;;;;;;;2.88;1.58;;;15.10;58.80;;;;;;5094470;28;20376;-76
2021/06/01 00:02:40;;;;;;;2.35;1.55;;;15.20;58.60;;;;;;5094136;28;20026;-76
2021/06/01 00:05:08;;;;;;;1.83;1.55;;;15.10;58.60;;;;;;5094607;28;20274;-74
2021/06/01 00:07:34;;;;;;;1.95;1.50;;;14.90;58.70;;;;;;5094385;28;20015;-75
2021/06/01 00:10:00;;;;;;;2.75;1.80;;;14.90;59.20;;;;;;5094733;28;20038;-75
2021/06/01 00:12:26;;;;;;;3.03;1.70;;;14.90;59.10;;;;;;5093827;28;20435;-76
2021/06/01 00:14:51;;;;;;;1.60;1.50;;;14.90;59.10;;;;;;5094314;28;20144;-75
2021/06/01 00:17:17;;;;;;;4.75;1.90;;;14.90;59.10;;;;;;5094662;28;20055;-75
2021/06/01 00:19:43;;;;;;;2.20;1.70;;;14.90;58.80;;;;;;5111847;28;20034;-75
2021/06/01 00:22:09;;;;;;;2.15;1.67;;;14.90;59.10;;;;;;5094300;28;20031;-75
2021/06/01 00:24:35;;;;;;;3.60;1.90;;;14.90;59.30;;;;;;5090003;28;20135;-76
2021/06/01 00:27:01;;;;;;;2.53;1.80;;;14.90;59.50;;;;;;5091437;28;20119;-76
2021/06/01 00:29:27;;;;;;;2.97;1.70;;;14.90;59.10;;;;;;5090834;28;20020;-76
2021/06/01 00:31:53;;;;;;;2.33;1.85;;;14.90;59.10;;;;;;5091337;28;20085;-76
2021/06/01 00:34:19;;;;;;;4.25;1.90;;;14.80;59.30;;;;;;5090657;28;20488;-76
2021/06/01 00:36:45;;;;;;;2.88;1.77;;;14.80;59.80;;;;;;5090625;28;20028;-75
2021/06/01 00:39:11;;;;;;;2.97;2.00;;;14.80;59.50;;;;;;5090877;28;20024;-76
2021/06/01 00:41:37;;;;;;;2.05;1.73;;;14.80;59.80;;;;;;5094016;28;20032;-76
2021/06/01 00:44:03;;;;;;;4.20;1.80;;;14.80;59.90;;;;;;5095184;28;20032;-76
2021/06/01 00:46:29;;;;;;;4.20;1.80;;;14.70;59.90;;;;;;5095924;28;20080;-76
2021/06/01 00:48:54;;;;;;;4.90;1.73;;;14.70;60.20;;;;;;5096639;28;20031;-77
2021/06/01 00:51:20;;;;;;;4.05;1.88;;;14.60;60.30;;;;;;5095320;28;20024;-75
2021/06/01 00:53:46;;;;;;;2.75;1.50;;;14.60;60.40;;;;;;5094238;28;20047;-76
2021/06/01 00:56:12;;;;;;;2.20;1.70;;;14.70;60.50;;;;;;5095096;28;20358;-76
2021/06/01 00:58:37;;;;;;;4.25;2.17;;;14.60;60.10;;;;;;5094286;28;20024;-76
2021/06/01 01:03:34;;;;;;;2.50;1.60;;;14.50;60.80;;;;;;5095305;28;20024;-75
2021/06/01 01:06:05;;;;;;;2.20;1.70;;;14.50;61.10;;;;;;5094691;28;20020;-76
2021/06/01 01:08:45;;;;;;;5.10;2.00;;;14.40;61.20;;;;;;5094127;28;20067;-76
2021/06/01 01:11:13;;;;;;;4.10;1.77;;;14.30;61.60;;;;;;5094790;28;20265;-76
2021/06/01 01:14:00;;;;;;;2.13;1.60;;;14.30;62.00;;;;;;5095218;28;20544;-75
2021/06/01 01:16:29;;;;;;;2.15;1.55;;;14.30;62.10;;;;;;5094249;28;20477;-76
2021/06/01 01:19:01;;;;;;;3.22;1.67;;;14.20;62.10;;;;;;5095678;28;20020;-76
2021/06/01 01:21:56;;;;;;;;;;;14.20;62.20;;;;;;5093792;28;20024;-76
2021/06/01 01:24:50;;;;;;;2.47;1.98;;;14.20;62.70;;;;;;5089168;28;20376;-76
2021/06/01 01:27:54;;;;;;;5.07;1.92;;;14.10;63.10;;;;;;5094409;28;20494;-75
2021/06/01 01:30:20;;;;;;;3.13;1.95;;;14.00;62.80;;;;;;5062976;28;20032;-76
2021/06/01 01:32:58;;;;;;;3.55;1.77;;;14.00;62.80;;;;;;5095039;28;20134;-76
2021/06/01 01:35:26;;;;;;;3.75;1.70;;;14.00;63.00;;;;;;5093739;28;20036;-77
2021/06/01 01:37:53;;;;;;;1.75;1.65;;;13.90;62.90;;;;;;5095795;28;20031;-75
2021/06/01 01:40:23;;;;;;;2.80;1.98;;;13.90;63.00;;;;;;5095568;28;20073;-76
2021/06/01 01:42:52;;;;;;;4.43;1.83;;;13.80;63.30;;;;;;5095075;28;20024;-76
2021/06/01 01:45:25;;;;;;;2.83;1.98;;;13.70;63.50;;;;;;5093933;28;20031;-76
2021/06/01 01:50:39;;;;;;;3.47;1.70;;;13.70;64.30;;;;;;5094667;28;20031;-75
2021/06/01 01:53:06;;;;;;;2.30;2.10;;;13.70;64.10;;;;;;5094474;28;20081;-75
2021/06/01 01:55:33;;;;;;;2.22;1.83;;;13.70;64.00;;;;;;5093345;28;20036;-76
2021/06/01 01:57:59;;;;;;;2.75;2.00;;;13.60;64.80;;;;;;5094137;28;20449;-77
2021/06/01 02:00:25;;;;;;;4.82;1.95;;;13.60;64.20;;;;;;5096881;28;20031;-76
2021/06/01 02:02:52;;;;;;;1.95;1.67;;;13.50;64.30;;;;;;5094782;28;20028;-75
2021/06/01 02:05:17;;;;;;;3.72;1.95;;;13.50;64.60;;;;;;5093425;28;20047;-76
2021/06/01 02:07:43;;;;;;;2.65;1.80;;;13.50;64.40;;;;;;5093261;28;20145;-75
2021/06/01 02:10:10;;;;;;;3.42;1.90;;;13.50;64.50;;;;;;5094280;28;20028;-76
2021/06/01 02:12:36;;;;;;;2.92;2.08;;;13.50;64.40;;;;;;5113681;28;20396;-75
2021/06/01 02:15:03;;;;;;;3.20;2.03;;;13.50;64.40;;;;;;5113547;28;20039;-76
2021/06/01 02:17:29;;;;;;;2.60;1.77;;;13.50;64.90;;;;;;5113304;28;20031;-76
2021/06/01 02:19:54;;;;;;;2.22;1.80;;;13.40;64.50;;;;;;5113909;28;20423;-76
2021/06/01 02:23:47;;;;;;;3.58;1.60;;;13.40;64.80;;;;;;5094189;28;20078;-76
2021/06/01 02:25:16;;;;;;;2.50;1.80;;;13.40;64.90;;;;;;5094438;28;20052;-76
2021/06/01 02:28:02;;;;;;;3.60;1.80;;;13.30;65.10;;;;;;5093267;28;20032;-76
2021/06/01 02:30:33;;;;;;;2.60;1.90;;;13.30;64.70;;;;;;5094123;28;20069;-76
2021/06/01 02:33:01;;;;;;;1.87;1.60;;;13.20;64.60;;;;;;5094098;28;20032;-75
2021/06/01 02:35:30;;;;;;;2.92;2.00;;;13.30;64.70;;;;;;5092108;28;20028;-76
2021/06/01 02:37:59;;;;;;;3.63;2.33;;;13.20;64.90;;;;;;5093223;28;20032;-76
2021/06/01 02:40:27;;;;;;;3.38;2.10;;;13.20;64.90;;;;;;5094986;28;20374;-76
2021/06/01 02:42:54;;;;;;;2.08;1.80;;;13.10;65.20;;;;;;5113315;28;20028;-76
2021/06/01 02:45:21;;;;;;;2.83;1.90;;;13.00;66.20;;;;;;5113206;28;20080;-75
2021/06/01 02:47:47;;;;;;;2.10;1.67;;;13.00;66.50;;;;;;5114147;28;20112;-76
2021/06/01 02:50:15;;;;;;;2.20;1.95;;;12.90;66.40;;;;;;5112138;28;20526;-75
2021/06/01 02:52:43;;;;;;;2.65;2.08;;;12.80;66.50;;;;;;5091975;28;20032;-75
2021/06/01 02:55:12;;;;;;;2.92;1.90;;;12.90;66.30;;;;;;5092268;28;20032;-76
2021/06/01 02:57:39;;;;;;;3.65;1.98;;;13.00;66.00;;;;;;5093892;28;20028;-75
2021/06/01 03:00:11;;;;;;;2.67;1.92;;;12.90;66.30;;;;;;5092623;28;20089;-76
2021/06/01 03:02:37;;;;;;;3.80;2.25;;;12.90;66.40;;;;;;5113136;28;20032;-76
2021/06/01 03:05:03;;;;;;;2.58;1.80;;;12.90;66.50;;;;;;5111799;28;20028;-75
2021/06/01 03:07:29;;;;;;;2.70;2.10;;;12.70;66.90;;;;;;5113310;28;20019;-76
2021/06/01 03:09:55;;;;;;;2.83;2.00;;;12.80;66.70;;;;;;5112976;28;20081;-76
2021/06/01 03:15:00;;;;;;;3.13;2.40;;;12.70;66.60;;;;;;5093674;28;20362;-75
2021/06/01 03:17:25;;;;;;;4.60;2.00;;;12.70;66.30;;;;;;5091444;28;20024;-76
2021/06/01 03:19:51;;;;;;;4.43;2.00;;;12.60;67.10;;;;;;5092129;28;20027;-76
2021/06/01 03:22:16;;;;;;;4.85;2.50;;;12.60;67.50;;;;;;5093599;28;20094;-76
2021/06/01 03:24:42;;;;;;;3.05;1.77;;;12.50;67.80;;;;;;5091192;28;20052;-76
2021/06/01 03:27:08;;;;;;;2.78;2.05;;;12.50;68.20;;;;;;5087304;28;20081;-76
2021/06/01 03:29:33;;;;;;;4.03;2.08;;;12.50;68.10;;;;;;5072570;28;20020;-78
2021/06/01 03:31:59;;;;;;;3.33;2.17;;;12.50;68.30;;;;;;5092120;28;20027;-77
2021/06/01 03:34:25;;;;;;;3.00;1.88;;;12.40;68.40;;;;;;5091358;28;20523;-77
2021/06/01 03:36:51;;;;;;;3.05;2.38;;;12.40;68.30;;;;;;5080752;28;20031;-75
2021/06/01 03:39:19;;;;;;;3.67;2.25;;;12.30;68.90;;;;;;5087531;28;20465;-76
2021/06/01 03:41:45;;;;;;;3.58;2.45;;;12.10;69.30;;;;;;5085749;28;20036;-76
2021/06/01 03:44:10;;;;;;;3.75;2.33;;;12.00;69.80;;;;;;5088734;28;20047;-76
2021/06/01 03:46:36;;;;;;;3.15;2.00;;;12.10;69.40;;;;;;5092100;28;20457;-76
2021/06/01 03:49:02;;;;;;;3.00;2.30;;;12.10;69.10;;;;;;5076971;28;20519;-76
2021/06/01 03:51:27;;;;;;;4.15;2.20;;;12.20;68.90;;;;;;5080221;28;20535;-76
2021/06/01 03:53:53;;;;;;;3.10;2.05;;;12.20;69.10;;;;;;5063015;28;20098;-76
2021/06/01 03:56:19;;;;;;;3.33;2.03;;;12.20;69.30;;;;;;5063993;28;20055;-75
2021/06/01 03:58:45;;;;;;;2.75;2.00;;;12.10;69.90;;;;;;5090617;28;20448;-76
2021/06/01 04:01:11;;;;;;;4.35;2.10;;;12.00;70.00;;;;;;5090687;28;20035;-75
2021/06/01 04:03:43;;;;;;;2.83;2.10;;;12.00;70.20;;;;;;5074605;28;20027;-75
2021/06/01 04:06:09;;;;;;;;;;;12.00;70.40;;;;;;5086199;28;20020;-75
2021/06/01 04:08:35;;;;;;;2.60;2.13;;;12.00;71.20;;;;;;5074109;28;19908;-73
2021/06/01 04:11:01;;;;;;;6.05;2.38;;;12.00;70.60;;;;;;5080626;28;20033;-73
2021/06/01 04:13:27;;;;;;;3.67;2.35;;;12.10;70.30;;;;;;5084712;28;20024;-74
2021/06/01 04:15:52;;;;;;;3.03;2.30;;;12.10;70.20;;;;;;5074482;28;20025;-73
2021/06/01 04:18:18;;;;;;;3.80;2.20;;;12.10;70.50;;;;;;5075524;28;20077;-73
2021/06/01 04:20:44;;;;;;;4.82;2.58;;;12.10;70.40;;;;;;5082640;28;20095;-73
2021/06/01 04:23:09;;;;;;;2.45;1.88;;;12.00;71.30;;;;;;5092876;27;20451;-73
2021/06/01 04:25:37;;;;;;;3.38;2.40;;;12.00;71.00;;;;;;5098742;28;20435;-73
2021/06/01 04:28:03;;;;;;;3.53;2.28;;;12.10;71.00;;;;;;5128118;27;20079;-72
2021/06/01 04:30:29;;;;;;;3.40;2.08;;;12.10;71.20;;;;;;5118183;28;20098;-73
2021/06/01 04:32:54;;;;;;;2.45;2.13;;;12.10;70.90;;;;;;5104939;28;20443;-73
2021/06/01 04:35:20;;;;;;;4.40;2.13;;;12.10;71.10;;;;;;5125774;28;20487;-73
2021/06/01 04:37:46;;;;;;;2.13;1.90;;;12.20;71.30;;;;;;5097765;28;20027;-74
2021/06/01 04:40:14;;;;;;;2.50;2.00;;;12.20;71.60;;;;;;5114409;28;20016;-73
2021/06/01 04:42:40;;;;;;;3.78;2.15;;;12.20;71.20;;;;;;5104591;28;20024;-74
2021/06/01 04:45:07;;;;;;;2.33;1.80;;;12.30;70.90;;;;;;5107753;28;20122;-74
2021/06/01 04:47:32;;;;;;;2.50;1.92;;;12.40;70.60;;;;;;5131166;28;20039;-74
2021/06/01 04:49:58;;;;;;;2.92;1.85;;;12.40;70.50;;;;;;5097664;28;20081;-72
2021/06/01 04:52:24;;;;;;;2.90;2.10;;;12.50;70.30;;;;;;5127286;28;20052;-73
2021/06/01 04:54:49;;;;;;;5.32;2.42;;;12.50;70.20;;;;;;5120546;28;20510;-72
2021/06/01 04:57:16;;;;;;;3.70;2.35;;;12.50;70.50;;;;;;5101711;28;20036;-72
2021/06/01 04:59:42;;;;;;;6.30;2.17;;;12.60;70.20;;;;;;5122251;28;20020;-72
2021/06/01 05:02:07;;;;;;;2.97;2.00;;;12.60;70.00;;;;;;5110784;28;20031;-72
2021/06/01 05:04:33;;;;;;;3.40;2.25;;;12.70;70.00;;;;;;5096897;28;20141;-73
2021/06/01 05:06:59;;;;;;;3.70;1.95;;;12.70;70.60;;;;;;5127670;28;20079;-74
2021/06/01 05:09:26;;;;;;;2.58;1.88;;;12.70;69.90;;;;;;5102684;28;20484;-74
2021/06/01 05:11:51;;;;;;;4.30;1.95;;;12.70;69.80;;;;;;5120487;28;20532;-75
2021/06/01 05:14:17;;;;;;;3.42;2.10;;;12.70;69.60;;;;;;5107928;28;20031;-75
2021/06/01 05:16:43;;;;;;;2.92;1.90;;;12.70;69.60;;;;;;5121014;28;20498;-75
2021/06/01 05:19:09;;;;;;;2.50;1.90;;;12.70;69.70;;;;;;5103416;28;20068;-75
2021/06/01 05:21:35;;;;;;;2.78;1.80;;;12.80;69.40;;;;;;5113447;28;20468;-77
2021/06/01 05:24:01;;;;;;;2.08;1.88;;;12.80;69.70;;;;;;5111465;28;20039;-72
2021/06/01 05:26:27;;;;;;;3.10;2.08;;;12.90;70.50;;;;;;5099520;28;20027;-72
2021/06/01 05:28:53;;;;;;;3.78;2.20;;;12.90;69.80;;;;;;5108559;28;20051;-74
2021/06/01 05:31:23;;;;;;;3.28;1.90;;;13.00;69.80;;;;;;5110485;27;20023;-72
2021/06/01 05:33:53;;;;;;;3.83;1.92;;;13.00;69.80;;;;;;5118932;27;20480;-73
2021/06/01 05:36:20;;;;;;;3.75;1.92;;;13.10;69.80;;;;;;5113249;28;20132;-72
2021/06/01 05:38:46;;;;;;;2.50;2.00;;;13.10;69.80;;;;;;5105239;27;20387;-72
2021/06/01 05:41:12;;;;;;;2.17;1.85;;;13.20;69.20;;;;;;5123545;27;20388;-73
2021/06/01 05:43:38;;;;;;;2.30;1.92;;;13.30;69.50;;;;;;5112386;27;20024;-73
2021/06/01 05:46:04;;;;;;;2.05;1.38;;;13.20;69.30;;;;;;5111331;27;20066;-73
2021/06/01 05:48:30;;;;;;;3.45;1.92;;;13.30;69.40;;;;;;5129065;27;20472;-73
2021/06/01 05:50:57;;;;;;;5.68;2.72;;;13.30;69.40;;;;;;5106872;27;20055;-77
2021/06/01 05:53:24;;;;;;;4.03;2.42;;;13.40;69.30;;;;;;5111109;27;20031;-73
2021/06/01 05:55:50;;;;;;;5.28;2.33;;;13.50;69.40;;;;;;5100037;27;20058;-74
2021/06/01 05:58:16;;;;;;;4.05;1.67;;;13.60;69.00;;;;;;5113313;28;20050;-75
2021/06/01 06:00:42;;;;;;;2.60;2.10;;;13.60;68.60;;;;;;5100622;28;20035;-73
2021/06/01 06:03:08;;;;;;;4.50;1.98;;;13.70;68.00;;;;;;5143707;27;20527;-75
2021/06/01 06:05:34;;;;;;;2.42;1.80;;;13.70;68.60;;;;;;5100689;28;20342;-75
2021/06/01 06:08:14;;;;;;;2.22;1.83;;;13.80;68.60;;;;;;5114147;27;20029;-76
2021/06/01 06:10:41;;;;;;;3.17;1.98;;;13.90;67.30;;;;;;5104739;27;20122;-74
2021/06/01 06:13:07;;;;;;;3.55;1.70;;;14.00;67.40;;;;;;5105766;28;20033;-75
2021/06/01 06:15:34;;;;;;;2.88;1.63;;;14.00;67.00;;;;;;5129685;27;20052;-75
2021/06/01 06:18:06;;;;;;;3.10;1.80;;;14.10;67.00;;;;;;5100119;27;20024;-75
2021/06/01 06:20:34;;;;;;;2.00;1.35;;;14.10;66.50;;;;;;5110044;28;20020;-75
2021/06/01 06:23:00;;;;;;;2.22;1.75;;;14.10;66.60;;;;;;5124664;27;20043;-76
2021/06/01 06:25:26;;;;;;;3.42;1.40;;;14.20;66.40;;;;;;5102806;28;20093;-74
2021/06/01 06:27:52;;;;;;;2.45;1.73;;;14.30;66.30;;;;;;5131339;27;20028;-74
2021/06/01 06:30:18;;;;;;;3.00;1.60;;;14.40;66.80;;;;;;5106140;27;20029;-73
2021/06/01 06:32:45;;;;;;;3.33;2.00;;;14.40;66.50;;;;;;5126129;27;20460;-73
2021/06/01 06:35:11;;;;;;;2.17;1.70;;;14.40;67.70;;;;;;5108268;27;20027;-73
2021/06/01 06:37:37;;;;;;;2.45;1.42;;;14.50;66.70;;;;;;5115425;27;20056;-73
2021/06/01 06:40:08;;;;;;;4.07;1.48;;;14.50;66.30;;;;;;5114175;27;20023;-74
2021/06/01 06:42:35;;;;;;;2.90;1.85;;;14.60;66.10;;;;;;5096150;27;20028;-77
2021/06/01 06:45:02;;;;;;;2.60;1.52;;;14.60;66.10;;;;;;5134631;27;20106;-75
2021/06/01 06:48:14;;;;;;;2.60;1.80;;;14.70;66.40;;;;;;5107421;27;20030;-77
2021/06/01 06:50:18;;;;;;;4.20;2.60;;;14.80;65.40;;;;;;5108841;27;20072;-76
2021/06/01 06:52:44;;;;;;;3.42;2.10;;;14.80;65.00;;;;;;5134090;27;20132;-76
2021/06/01 06:55:11;;;;;;;3.78;2.40;;;15.00;65.30;;;;;;5100309;28;20069;-76
2021/06/01 06:57:38;;;;;;;2.58;1.52;;;15.10;64.50;;;;;;5100623;28;20150;-77
2021/06/01 07:00:08;;;;;;;2.92;1.42;;;15.10;63.70;;;;;;5106318;28;20027;-75
2021/06/01 07:02:34;;;;;;;1.77;1.17;;;15.20;63.30;;;;;;5120487;27;20023;-74
2021/06/01 07:05:00;;;;;;;2.05;1.42;;;15.20;63.30;;;;;;5105398;28;20039;-75
2021/06/01 07:07:26;;;;;;;6.32;1.70;;;15.30;63.30;;;;;;5095882;28;20032;-74
2021/06/01 07:09:52;;;;;;;1.33;1.20;;;15.40;62.80;;;;;;5096099;27;20136;-75
2021/06/01 07:12:18;;;;;;;13.10;7.65;;;15.40;62.10;;;;;;5129998;27;20023;-73
2021/06/01 07:14:58;;;;;;;143.00;65.95;;;15.50;63.20;;;;;;5121695;27;20051;-73
2021/06/01 07:17:24;;;;;;;59.53;28.38;;;15.60;63.50;;;;;;5108943;27;20023;-76
2021/06/01 07:19:54;;;;;;;20.10;10.23;;;15.60;62.40;;;;;;5105983;28;20529;-75
2021/06/01 07:22:20;;;;;;;18.23;9.30;;;15.70;61.90;;;;;;5111428;28;20011;-76
2021/06/01 07:24:46;;;;;;;11.07;6.57;;;15.70;61.60;;;;;;5094975;28;20070;-76
2021/06/01 07:27:12;;;;;;;5.82;2.80;;;15.80;61.70;;;;;;5126222;27;20106;-76
2021/06/01 07:29:38;;;;;;;3.45;1.95;;;15.90;60.70;;;;;;5117732;27;20111;-76
2021/06/01 07:32:04;;;;;;;2.50;1.42;;;16.00;60.20;;;;;;5132889;27;20030;-75
2021/06/01 07:34:30;;;;;;;3.00;1.75;;;16.10;59.30;;;;;;5128029;27;20023;-75
2021/06/01 07:36:55;;;;;;;2.33;1.42;;;16.20;59.30;;;;;;5104687;27;20494;-76
2021/06/01 07:39:21;;;;;;;2.35;1.23;;;16.30;59.80;;;;;;5102375;28;20479;-76
2021/06/01 07:41:47;;;;;;;2.40;1.35;;;16.40;59.10;;;;;;5103056;27;20023;-76
2021/06/01 07:44:13;;;;;;;1.95;1.35;;;16.40;59.40;;;;;;5109702;27;20118;-76
2021/06/01 07:46:39;;;;;;;2.45;1.10;;;16.40;59.00;;;;;;5106125;27;20505;-76
2021/06/01 07:49:05;;;;;;;2.20;1.20;;;16.50;59.10;;;;;;5107453;27;20486;-76
2021/06/01 07:51:31;;;;;;;1.52;1.17;;;16.50;58.30;;;;;;5106042;27;20023;-76
2021/06/01 07:54:03;;;;;;;1.38;1.10;;;16.50;59.40;;;;;;5107571;27;20031;-75
2021/06/01 07:56:29;;;;;;;1.60;1.40;;;16.60;58.60;;;;;;5121486;27;20156;-75
2021/06/01 07:58:56;;;;;;;1.67;1.17;;;16.70;57.90;;;;;;5124622;27;20164;-75
2021/06/01 08:01:21;;;;;;;1.20;1.10;;;16.70;58.00;;;;;;5105715;28;20020;-75
2021/06/01 08:03:47;;;;;;;1.40;1.15;;;16.80;58.20;;;;;;5102101;27;20027;-75
2021/06/01 08:06:13;;;;;;;14.80;7.53;;;16.90;57.40;;;;;;5105569;27;20019;-75
2021/06/01 08:08:39;;;;;;;9.38;4.57;;;16.90;57.40;;;;;;5109567;27;20062;-75
2021/06/01 08:11:05;;;;;;;2.85;1.88;;;16.90;56.40;;;;;;5119744;27;20050;-75
2021/06/01 08:13:31;;;;;;;2.55;1.40;;;17.00;55.80;;;;;;5106027;27;20026;-75
2021/06/01 08:15:58;;;;;;;1.48;1.20;;;17.10;55.40;;;;;;5104735;28;20024;-76
2021/06/01 08:18:26;;;;;;;1.42;1.13;;;17.10;55.80;;;;;;5108773;27;20080;-76
2021/06/01 08:21:06;;;;;;;1.67;1.13;;;17.20;54.60;;;;;;5114245;27;20118;-76
2021/06/01 08:23:32;;;;;;;1.52;1.05;;;17.30;55.00;;;;;;5101040;28;20055;-75
2021/06/01 08:25:58;;;;;;;2.67;1.30;;;17.30;54.50;;;;;;5109873;28;20107;-75
2021/06/01 08:28:24;;;;;;;2.45;1.23;;;17.50;54.40;;;;;;5107406;28;20429;-76
2021/06/01 08:30:51;;;;;;;1.42;1.25;;;17.50;54.00;;;;;;5105293;28;20016;-75
2021/06/01 08:33:17;;;;;;;2.08;1.40;;;17.70;53.00;;;;;;5110978;28;20408;-75
2021/06/01 08:35:43;;;;;;;1.70;0.98;;;17.70;53.40;;;;;;5097606;28;20040;-75
2021/06/01 08:38:09;;;;;;;1.23;0.95;;;17.90;52.50;;;;;;5107790;28;20033;-75
2021/06/01 08:40:35;;;;;;;2.10;1.00;;;18.00;52.50;;;;;;5106569;28;20029;-75
2021/06/01 08:43:00;;;;;;;1.10;1.00;;;18.00;52.10;;;;;;5108881;28;20384;-75
2021/06/01 08:45:26;;;;;;;1.42;1.10;;;18.00;52.30;;;;;;5100365;28;20047;-75
2021/06/01 08:47:54;;;;;;;3.78;1.10;;;18.10;52.80;;;;;;5110749;28;20080;-77
2021/06/01 08:50:20;;;;;;;1.80;1.40;;;18.20;52.40;;;;;;5099024;28;20102;-75
2021/06/01 08:52:46;;;;;;;2.63;1.27;;;18.30;51.90;;;;;;5123565;28;20495;-75
2021/06/01 08:55:12;;;;;;;2.67;1.17;;;18.20;51.30;;;;;;5106122;28;20035;-76
2021/06/01 08:57:39;;;;;;;2.38;1.10;;;18.20;52.10;;;;;;5098043;28;20027;-75
2021/06/01 09:00:08;;;;;;;1.20;1.10;;;18.30;51.50;;;;;;5107488;28;20023;-76
2021/06/01 09:02:34;;;;;;;2.28;1.05;;;18.30;51.70;;;;;;5111108;28;20027;-75
2021/06/01 09:05:04;;;;;;;1.40;1.10;;;18.40;51.30;;;;;;5107775;27;20035;-75
2021/06/01 09:21:13;;;;;;;4.90;1.25;;;18.80;51.50;;;;;;5124600;27;20031;-76
2021/06/01 09:24:11;;;;;;;2.67;1.35;;;18.90;50.30;;;;;;5106714;27;20040;-77
2021/06/01 09:26:54;;;;;;;1.20;1.10;;;19.00;49.10;;;;;;5075236;27;20055;-76
2021/06/01 09:29:21;;;;;;;3.17;1.23;;;19.10;49.60;;;;;;5098526;28;20107;-75
2021/06/01 09:32:14;;;;;;;3.60;1.38;;;19.10;49.40;;;;;;5097838;28;20456;-75
2021/06/01 09:34:46;;;;;;;1.88;1.30;;;19.10;48.90;;;;;;5098027;28;20023;-77
2021/06/01 09:37:17;;;;;;;3.00;1.40;;;19.00;48.90;;;;;;5098421;28;20035;-77
2021/06/01 09:39:44;;;;;;;2.88;1.25;;;19.10;49.10;;;;;;5113917;27;20065;-76
2021/06/01 09:42:30;;;;;;;2.10;1.30;;;19.10;49.60;;;;;;5126799;27;20065;-75
2021/06/01 09:45:19;;;;;;;2.35;1.30;;;19.10;48.70;;;;;;5102203;27;20480;-75
2021/06/01 09:47:57;;;;;;;2.63;1.40;;;19.20;47.40;;;;;;5122620;27;20476;-75
2021/06/01 09:50:37;;;;;;;2.88;1.00;;;19.30;47.50;;;;;;5095439;28;20024;-75
2021/06/01 09:53:16;;;;;;;1.30;1.17;;;19.40;46.60;;;;;;5098371;27;20122;-75
2021/06/01 09:55:45;;;;;;;1.77;1.13;;;19.30;45.80;;;;;;5108405;27;20388;-75
2021/06/01 09:58:14;;;;;;;3.15;1.42;;;19.40;46.80;;;;;;5117293;27;20024;-75
2021/06/01 10:00:41;;;;;;;3.67;1.25;;;19.50;46.60;;;;;;5095918;28;20024;-76
2021/06/01 10:03:16;;;;;;;1.58;1.13;;;19.60;47.10;;;;;;5098733;28;20024;-75
2021/06/01 10:05:44;;;;;;;4.18;2.78;;;19.70;44.90;;;;;;5098406;28;20019;-75
2021/06/01 10:08:24;;;;;;;8.55;3.42;;;19.70;45.40;;;;;;5100815;27;20076;-75
2021/06/01 10:10:53;;;;;;;3.85;1.88;;;19.70;46.00;;;;;;5115360;27;20032;-77
2021/06/01 10:13:21;;;;;;;2.15;1.20;;;19.80;45.60;;;;;;5097807;28;20480;-77
2021/06/01 10:15:50;;;;;;;3.33;1.30;;;19.80;45.30;;;;;;5115066;27;20031;-77
2021/06/01 10:18:19;;;;;;;2.45;1.55;;;19.90;45.90;;;;;;5094548;28;20024;-77
2021/06/01 10:20:45;;;;;;;1.40;1.10;;;20.00;45.70;;;;;;5106559;27;20055;-77
2021/06/01 10:23:13;;;;;;;1.67;1.20;;;20.00;44.90;;;;;;5105622;27;20048;-77
2021/06/01 10:25:39;;;;;;;2.15;1.23;;;20.10;45.10;;;;;;5104810;27;20080;-77
2021/06/01 10:28:09;;;;;;;1.83;1.25;;;20.20;44.90;;;;;;5108448;27;20053;-77
2021/06/01 10:30:40;;;;;;;2.08;1.10;;;20.20;44.60;;;;;;5104455;27;20110;-75
2021/06/01 10:33:11;;;;;;;1.40;1.20;;;20.20;45.50;;;;;;5103323;28;20478;-75
2021/06/01 10:35:43;;;;;;;1.25;0.90;;;20.30;45.20;;;;;;5112596;27;20031;-75
2021/06/01 10:52:25;;;;;;;2.25;1.00;;;20.60;46.00;;;;;;5046367;28;20025;-74
2021/06/01 10:54:59;;;;;;;6.03;3.28;;;20.70;45.80;;;;;;5025020;28;20129;-76
2021/06/01 10:57:55;;;;;;;8.32;5.40;;;20.70;42.10;;;;;;5028243;28;20067;-75
2021/06/01 11:03:13;;;;;;;2.08;1.08;;;20.90;44.00;;;;;;5044231;28;20024;-75
2021/06/01 11:05:58;;;;;;;2.95;1.48;;;21.00;44.20;;;;;;5024982;28;20039;-76
2021/06/01 11:08:36;;;;;;;1.98;1.15;;;20.90;41.70;;;;;;5044552;28;20029;-77
2021/06/01 11:11:32;;;;;;;1.27;1.17;;;20.90;41.70;;;;;;5023392;28;20438;-73
2021/06/01 11:14:00;;;;;;;2.65;1.20;;;21.00;43.10;;;;;;5005473;28;20524;-76
2021/06/01 11:16:45;;;;;;;1.27;1.08;;;21.10;43.20;;;;;;5024943;28;20028;-80
2021/06/01 11:19:13;;;;;;;1.58;1.27;;;21.10;43.10;;;;;;5104209;27;20027;-75
2021/06/01 11:21:56;;;;;;;1.20;1.00;;;21.30;42.90;;;;;;5106363;27;20102;-77
2021/06/01 11:35:45;;;;;;;4.03;1.10;;;21.70;41.30;;;;;;5122955;27;20067;-74
2021/06/01 11:38:20;;;;;;;1.50;0.88;;;21.80;40.00;;;;;;5103205;27;20115;-75
2021/06/01 11:43:38;;;;;;;1.10;1.00;;;21.80;41.10;;;;;;5124967;27;20069;-75
2021/06/01 11:51:26;;;;;;;1.48;0.80;;;22.00;41.10;;;;;;5120954;27;20030;-76
2021/06/01 11:53:56;;;;;;;1.92;1.00;;;22.10;39.90;;;;;;5109251;27;20035;-75
2021/06/01 12:20:51;;;;;;;1.40;1.05;;;22.90;38.50;;;;;;5118746;27;20097;-75
2021/06/01 12:23:32;;;;;;;1.52;0.90;;;23.00;38.70;;;;;;5104679;28;20060;-75
2021/06/01 12:26:10;;;;;;;1.52;1.00;;;23.10;38.60;;;;;;5099129;28;20042;-76
2021/06/01 12:32:13;;;;;;;1.30;1.10;;;23.20;37.20;;;;;;5092259;28;20126;-76
2021/06/01 13:07:06;;;;;;;2.63;0.90;;;24.90;35.60;;;;;;5115548;28;20030;-79
2021/06/01 13:09:37;;;;;;;108.10;52.88;;;25.10;34.60;;;;;;5112132;28;20125;-79
2021/06/01 13:20:40;;;;;;;1.80;1.30;;;25.80;33.90;;;;;;5116638;28;20074;-77
2021/06/01 13:40:03;;;;;;;3.75;1.15;;;28.20;31.20;;;;;;5115179;28;20023;-78
2021/06/01 13:48:12;;;;;;;1.48;1.00;;;29.80;28.90;;;;;;5132040;27;20110;-78
2021/06/01 13:56:05;;;;;;;2.05;0.90;;;31.00;28.30;;;;;;5119375;27;20114;-78
2021/06/01 14:40:01;;;;;;;1.02;0.90;;;32.40;26.70;;;;;;5125593;27;20421;-80
2021/06/01 15:23:47;;;;;;;8.23;2.72;;;30.70;29.10;;;;;;5114667;27;20066;-75
2021/06/01 15:31:34;;;;;;;1.85;1.13;;;29.80;29.60;;;;;;5113317;27;20051;-75
2021/06/01 15:48:26;;;;;;;1.92;0.82;;;30.30;28.50;;;;;;5114641;27;20517;-76
2021/06/01 15:50:41;;;;;;;2.20;1.00;;;30.70;28.70;;;;;;5112138;27;20460;-77
2021/06/01 16:42:55;;;;;;;1.70;1.20;;;33.40;26.50;;;;;;5105004;28;20065;-78
2021/06/01 17:04:43;;;;;;;3.53;0.73;;;31.20;27.40;;;;;;5132739;28;20403;-76
2021/06/01 17:07:34;;;;;;;1.80;1.08;;;31.10;27.60;;;;;;5113791;28;20087;-77
2021/06/01 17:13:00;;;;;;;0.88;0.88;;;30.90;28.30;;;;;;5121880;28;20096;-76
2021/06/01 17:15:25;;;;;;;6.32;3.85;;;30.50;27.60;;;;;;5108786;28;20118;-76
2021/06/01 17:18:19;;;;;;;13.57;9.05;;;30.20;28.30;;;;;;5097098;28;20531;-76
2021/06/01 17:34:39;;;;;;;1.27;0.90;;;29.30;28.40;;;;;;5116230;27;20035;-76
2021/06/01 17:37:07;;;;;;;1.58;1.02;;;28.90;28.50;;;;;;5109504;27;20399;-77
2021/06/01 17:39:34;;;;;;;2.00;1.10;;;28.70;28.70;;;;;;5107972;28;20032;-76
2021/06/01 17:42:01;;;;;;;1.63;1.10;;;28.40;29.00;;;;;;5112251;27;20027;-75
2021/06/01 17:44:29;;;;;;;1.20;1.10;;;28.10;29.50;;;;;;5099915;27;20052;-75
2021/06/01 17:47:02;;;;;;;1.27;1.17;;;28.00;30.10;;;;;;5097588;28;20066;-75
2021/06/01 17:49:31;;;;;;;2.33;1.10;;;27.80;29.70;;;;;;5130150;27;20027;-75
2021/06/01 17:51:59;;;;;;;1.17;1.02;;;27.70;30.10;;;;;;5120878;27;20031;-76
2021/06/01 17:54:30;;;;;;;1.50;1.00;;;27.50;30.30;;;;;;5118777;27;20078;-72
2021/06/01 17:56:56;;;;;;;1.27;1.02;;;27.30;31.00;;;;;;5106728;27;20035;-75
2021/06/01 17:59:23;;;;;;;1.08;0.80;;;27.20;31.40;;;;;;5110944;27;20072;-74
2021/06/01 18:01:50;;;;;;;1.90;1.00;;;27.10;31.00;;;;;;5125237;27;20054;-76
2021/06/01 18:04:18;;;;;;;1.65;0.85;;;27.00;31.50;;;;;;5111467;27;20015;-75
2021/06/01 18:06:51;;;;;;;1.70;1.20;;;26.80;32.00;;;;;;5106230;27;20051;-76
2021/06/01 19:21:43;;;;;;;1.30;1.20;;;23.40;39.40;;;;;;5128787;27;20172;-77
2021/06/01 19:51:44;;;;;;;3.38;1.20;;;22.20;42.10;;;;;;5120980;27;20079;-75
2021/06/01 19:54:10;;;;;;;1.13;1.02;;;22.10;42.10;;;;;;5123564;27;20069;-75
2021/06/01 19:56:37;;;;;;;1.90;1.30;;;22.00;42.30;;;;;;5115137;28;20032;-76
2021/06/01 19:59:03;;;;;;;3.25;1.30;;;22.00;42.90;;;;;;5103576;27;20036;-76
2021/06/01 20:01:30;;;;;;;1.48;1.25;;;21.90;42.60;;;;;;5123569;27;20030;-75
2021/06/01 20:03:56;;;;;;;1.17;1.08;;;21.80;43.30;;;;;;5102767;27;20361;-76
2021/06/01 20:06:22;;;;;;;2.00;1.13;;;21.70;43.30;;;;;;5102864;28;20027;-74
2021/06/01 20:08:49;;;;;;;2.50;1.40;;;21.70;43.40;;;;;;5105473;27;20020;-75
2021/06/01 20:11:16;;;;;;;1.80;1.10;;;21.60;43.70;;;;;;5101114;28;20028;-75
2021/06/01 20:13:42;;;;;;;1.25;1.10;;;21.50;44.00;;;;;;5095011;28;20097;-75
2021/06/01 20:16:07;;;;;;;1.80;1.20;;;21.40;44.70;;;;;;5094415;28;20467;-75
2021/06/01 20:18:39;;;;;;;3.85;1.25;;;21.30;45.10;;;;;;5113412;28;20059;-74